Time;durP1;ratioP1;P1;durP2;ratioP2;P2;SDS_P1;SDS_P2;PMS_P1;PMS_P2;Temp;Humidity;BMP_temperature;BMP_pressure;BME280_temperature;BME280_humidity;BME280_pressure;Samples;Min_cycle;Max_cycle;Signal;HPM_P1;HPM_P2
2024/01/18 00:02:15;;;;;;;27.75;14.68;;;;;;;-1.63;100.00;99282.53;5050662;28;20036;-76
2024/01/18 00:04:41;;;;;;;25.52;14.55;;;;;;;-1.60;100.00;99290.06;5049611;28;20033;-77
2024/01/18 00:07:07;;;;;;;26.40;14.38;;;;;;;-1.64;100.00;99278.31;5049503;28;20037;-77
2024/01/18 00:09:32;;;;;;;26.75;13.75;;;;;;;-1.61;100.00;99291.06;5050542;28;20040;-76
2024/01/18 00:11:58;;;;;;;26.85;14.65;;;;;;;-1.72;100.00;99276.47;5049033;28;20095;-76
2024/01/18 00:14:23;;;;;;;24.02;14.05;;;;;;;-1.82;100.00;99265.31;5050344;28;20033;-77
2024/01/18 00:16:48;;;;;;;45.90;13.73;;;;;;;-1.67;100.00;99286.47;5050412;28;20032;-77
2024/01/18 00:19:14;;;;;;;25.25;15.32;;;;;;;-1.68;100.00;99287.41;5050250;28;20029;-77
2024/01/18 00:21:40;;;;;;;25.90;13.10;;;;;;;-1.67;100.00;99302.97;5050201;28;20032;-77
2024/01/18 00:24:06;;;;;;;27.30;14.73;;;;;;;-1.67;100.00;99305.56;5050211;28;20053;-77
2024/01/18 00:26:31;;;;;;;27.83;14.20;;;;;;;-1.81;100.00;99286.06;5050283;28;20046;-77
2024/01/18 00:28:57;;;;;;;25.20;13.30;;;;;;;-1.86;100.00;99285.72;5032343;28;20388;-77
2024/01/18 00:31:23;;;;;;;24.50;12.73;;;;;;;-1.83;100.00;99290.63;5050124;28;20114;-77
2024/01/18 00:33:48;;;;;;;24.23;12.45;;;;;;;-1.85;100.00;99287.34;5050033;28;20028;-77
2024/01/18 00:36:14;;;;;;;23.38;13.65;;;;;;;-1.76;100.00;99314.34;5050258;28;20075;-77
2024/01/18 00:38:39;;;;;;;22.77;13.75;;;;;;;-1.70;100.00;99321.56;5050045;28;20028;-76
2024/01/18 00:41:04;;;;;;;24.77;13.43;;;;;;;-1.72;100.00;99314.84;5049989;28;20025;-76
2024/01/18 00:43:30;;;;;;;25.52;13.40;;;;;;;-1.79;100.00;99312.84;5049968;28;20032;-77
2024/01/18 00:45:55;;;;;;;24.27;14.10;;;;;;;-1.76;100.00;99324.78;5050171;28;20033;-76
2024/01/18 00:48:21;;;;;;;28.38;15.48;;;;;;;-1.89;100.00;99306.09;5048604;28;20175;-76
2024/01/18 00:50:46;;;;;;;27.27;15.20;;;;;;;-1.94;100.00;99298.72;5049911;28;20056;-76
2024/01/18 00:53:12;;;;;;;23.17;13.70;;;;;;;-1.75;100.00;99328.25;5049820;28;20033;-76
2024/01/18 00:55:37;;;;;;;24.75;13.90;;;;;;;-1.89;100.00;99311.31;5049693;28;20029;-76
2024/01/18 00:58:02;;;;;;;21.35;11.82;;;;;;;-1.79;100.00;99336.38;5049671;28;20025;-76
2024/01/18 01:00:28;;;;;;;23.05;13.95;;;;;;;-1.79;100.00;99338.16;5048346;28;20123;-76
2024/01/18 01:02:53;;;;;;;23.95;12.68;;;;;;;-1.80;100.00;99336.53;5048108;28;20064;-76
2024/01/18 01:05:19;;;;;;;27.25;15.40;;;;;;;-1.84;100.00;99343.84;5048132;28;20028;-76
2024/01/18 01:07:45;;;;;;;38.45;15.48;;;;;;;-1.83;100.00;99348.13;5015125;28;20048;-76
2024/01/18 01:10:10;;;;;;;22.58;12.93;;;;;;;-1.92;100.00;99335.16;5049464;28;20400;-76
2024/01/18 01:12:36;;;;;;;22.98;13.05;;;;;;;-1.95;100.00;99336.28;5031396;28;20056;-76
2024/01/18 01:15:01;;;;;;;24.48;14.70;;;;;;;-1.87;100.00;99356.41;5031701;28;20099;-76
2024/01/18 01:17:26;;;;;;;26.83;15.07;;;;;;;-1.87;100.00;99362.44;5015182;28;20356;-76
2024/01/18 01:19:52;;;;;;;23.58;13.32;;;;;;;-1.87;100.00;99361.63;5015031;28;20116;-76
2024/01/18 01:22:18;;;;;;;24.00;12.40;;;;;;;-1.92;100.00;99353.44;5048024;28;20029;-76
2024/01/18 01:24:43;;;;;;;25.45;13.65;;;;;;;-1.96;100.00;99352.94;5048075;28;20122;-76
2024/01/18 01:27:08;;;;;;;22.17;13.32;;;;;;;-1.93;100.00;99368.28;5048051;28;20045;-76
2024/01/18 01:29:34;;;;;;;23.83;12.20;;;;;;;-2.00;100.00;99362.03;5020893;28;20032;-76
2024/01/18 01:31:59;;;;;;;24.98;15.77;;;;;;;-2.02;100.00;99354.38;5031554;28;20025;-76
2024/01/18 01:34:25;;;;;;;28.88;14.13;;;;;;;-2.01;100.00;99355.19;5014894;28;20549;-76
2024/01/18 01:36:51;;;;;;;34.75;14.18;;;;;;;-2.02;100.00;99359.59;5031338;28;20032;-76
2024/01/18 01:39:17;;;;;;;30.67;17.38;;;;;;;-2.11;100.00;99349.22;5031438;28;20029;-76
2024/01/18 01:41:42;;;;;;;25.77;14.50;;;;;;;-2.11;100.00;99362.28;5031367;28;20033;-76
2024/01/18 01:44:08;;;;;;;28.27;14.98;;;;;;;-2.16;100.00;99354.91;5031341;28;20032;-76
2024/01/18 01:46:33;;;;;;;28.00;13.77;;;;;;;-2.11;100.00;99367.50;5049343;28;20039;-76
2024/01/18 01:49:04;;;;;;;23.58;12.05;;;;;;;-2.13;100.00;99372.06;5014734;28;20116;-76
2024/01/18 01:51:47;;;;;;;26.23;13.95;;;;;;;-2.27;100.00;99357.75;5047825;28;20029;-76
2024/01/18 01:54:14;;;;;;;19.75;10.98;;;;;;;-2.15;100.00;99387.88;5047829;28;20387;-76
2024/01/18 01:56:39;;;;;;;23.88;13.15;;;;;;;-2.18;100.00;99382.13;5047728;28;20119;-76
2024/01/18 01:59:09;;;;;;;29.25;13.18;;;;;;;-2.17;100.00;99389.00;5014770;28;20123;-76
2024/01/18 02:01:35;;;;;;;24.73;14.70;;;;;;;-2.24;100.00;99378.34;5047794;28;20021;-76
2024/01/18 02:04:01;;;;;;;28.45;16.00;;;;;;;-2.21;100.00;99384.06;5031248;28;20037;-76
2024/01/18 02:06:28;;;;;;;27.88;15.10;;;;;;;-2.18;100.00;99387.38;5047790;28;20503;-76
2024/01/18 02:08:53;;;;;;;27.55;15.02;;;;;;;-2.22;100.00;99385.06;5031350;28;20043;-76
2024/01/18 02:11:19;;;;;;;24.10;13.75;;;;;;;-2.22;100.00;99392.88;5030948;28;20571;-76
2024/01/18 02:13:45;;;;;;;25.13;14.02;;;;;;;-2.25;100.00;99393.19;5048753;28;20063;-76
2024/01/18 02:16:10;;;;;;;21.42;12.95;;;;;;;-2.26;100.00;99395.94;5052989;28;20033;-77
2024/01/18 02:18:35;;;;;;;25.25;13.38;;;;;;;-2.36;100.00;99375.13;5034723;28;20037;-77
2024/01/18 02:21:03;;;;;;;24.42;12.68;;;;;;;-2.27;100.00;99402.16;5051320;28;20029;-77
2024/01/18 02:23:32;;;;;;;24.88;14.00;;;;;;;-2.35;100.00;99397.69;5051244;28;20116;-77
2024/01/18 02:25:57;;;;;;;27.67;14.05;;;;;;;-2.30;100.00;99389.41;5052482;28;20076;-77
2024/01/18 02:28:22;;;;;;;22.83;13.20;;;;;;;-2.26;100.00;99399.38;5034661;28;20064;-77
2024/01/18 02:30:48;;;;;;;32.47;15.98;;;;;;;-2.39;100.00;99366.78;5034667;28;20048;-77
2024/01/18 02:33:13;;;;;;;27.83;14.40;;;;;;;-2.23;100.00;99387.81;5052470;28;20463;-77
2024/01/18 02:35:38;;;;;;;28.33;15.95;;;;;;;-2.22;100.00;99389.47;5034467;28;20633;-77
2024/01/18 02:38:05;;;;;;;27.67;15.73;;;;;;;-2.24;100.00;99375.72;5034373;28;20040;-77
2024/01/18 02:40:30;;;;;;;30.50;15.73;;;;;;;-2.19;100.00;99375.28;5050861;28;20044;-77
2024/01/18 02:42:55;;;;;;;27.58;15.25;;;;;;;-2.23;100.00;99379.97;5050762;28;20088;-76
2024/01/18 02:45:21;;;;;;;25.50;15.85;;;;;;;-2.20;100.00;99379.69;5017781;28;20151;-76
2024/01/18 02:47:47;;;;;;;26.10;13.60;;;;;;;-2.37;100.00;99364.84;5050914;28;20147;-76
2024/01/18 02:50:12;;;;;;;27.65;14.48;;;;;;;-2.22;100.00;99381.63;5050763;28;20514;-76
2024/01/18 02:52:39;;;;;;;28.10;15.27;;;;;;;-2.11;100.00;99412.72;5033985;28;20037;-76
2024/01/18 02:55:05;;;;;;;26.52;14.27;;;;;;;-2.14;100.00;99401.78;5050701;28;20037;-76
2024/01/18 02:57:31;;;;;;;29.63;16.13;;;;;;;-2.12;100.00;99405.88;5034212;28;20037;-76
2024/01/18 02:59:56;;;;;;;30.67;15.40;;;;;;;-2.18;100.00;99396.00;5017319;28;20128;-76
2024/01/18 03:02:22;;;;;;;34.38;17.80;;;;;;;-2.23;100.00;99375.59;5033903;28;20415;-77
2024/01/18 03:04:47;;;;;;;26.48;14.88;;;;;;;-2.05;100.00;99406.06;5033424;28;20043;-77
2024/01/18 03:07:12;;;;;;;24.52;13.75;;;;;;;-2.25;100.00;99374.91;5050583;28;20051;-77
2024/01/18 03:09:38;;;;;;;31.58;15.65;;;;;;;-2.04;100.00;99403.31;5050423;28;20041;-77
2024/01/18 03:12:04;;;;;;;29.88;17.20;;;;;;;-2.03;100.00;99411.97;5051297;28;20076;-76
2024/01/18 03:14:29;;;;;;;29.27;15.13;;;;;;;-2.01;100.00;99410.03;5049975;28;20420;-76
2024/01/18 03:16:54;;;;;;;27.45;16.08;;;;;;;-2.19;100.00;99383.94;5051743;28;20040;-77
2024/01/18 03:19:20;;;;;;;27.67;16.05;;;;;;;-2.04;100.00;99399.91;5033388;28;20064;-77
2024/01/18 03:21:45;;;;;;;27.67;16.38;;;;;;;-2.02;100.00;99411.00;5051649;28;20029;-77
2024/01/18 03:24:10;;;;;;;32.30;16.33;;;;;;;-2.05;100.00;99417.34;5051202;28;20598;-77
2024/01/18 03:26:36;;;;;;;28.52;14.98;;;;;;;-2.09;100.00;99410.78;5051612;28;20036;-77
2024/01/18 03:29:01;;;;;;;24.70;13.80;;;;;;;-2.14;100.00;99417.44;5051240;28;20641;-77
2024/01/18 03:31:27;;;;;;;31.25;16.40;;;;;;;-2.17;100.00;99425.56;5050053;28;20137;-76
2024/01/18 03:33:52;;;;;;;25.65;14.75;;;;;;;-2.19;100.00;99420.50;5051205;28;20021;-76
2024/01/18 03:36:18;;;;;;;29.50;16.00;;;;;;;-2.22;100.00;99419.00;5050018;28;20048;-76
2024/01/18 03:38:43;;;;;;;27.35;15.95;;;;;;;-2.36;100.00;99398.63;5051111;28;20396;-76
2024/01/18 03:41:09;;;;;;;26.92;16.17;;;;;;;-2.29;100.00;99412.72;5049890;28;20047;-76
2024/01/18 03:43:34;;;;;;;27.65;16.15;;;;;;;-2.24;100.00;99422.72;5050866;28;20029;-76
2024/01/18 03:45:59;;;;;;;27.48;16.55;;;;;;;-2.26;100.00;99432.50;5051128;28;20887;-77
2024/01/18 03:48:25;;;;;;;28.05;15.60;;;;;;;-2.24;100.00;99438.41;5049706;28;20028;-76
2024/01/18 03:50:50;;;;;;;27.80;15.70;;;;;;;-2.33;100.00;99424.47;5050926;28;20052;-76
2024/01/18 03:53:16;;;;;;;27.10;15.00;;;;;;;-2.45;100.00;99404.75;5033087;28;20384;-76
2024/01/18 03:55:42;;;;;;;28.85;17.17;;;;;;;-2.38;100.00;99426.69;5050807;28;20090;-76
2024/01/18 03:58:08;;;;;;;26.73;15.00;;;;;;;-2.30;100.00;99444.22;5050914;28;20032;-76
2024/01/18 04:00:33;;;;;;;31.40;14.77;;;;;;;-2.41;100.00;99432.22;5049460;28;20029;-76
2024/01/18 04:02:58;;;;;;;28.58;14.85;;;;;;;-2.53;100.00;99413.31;5049390;28;20098;-77
2024/01/18 04:05:24;;;;;;;29.80;16.10;;;;;;;-2.65;100.00;99414.50;5050650;28;20040;-77
2024/01/18 04:07:49;;;;;;;26.15;13.65;;;;;;;-2.46;100.00;99447.50;5050494;28;20490;-76
2024/01/18 04:10:14;;;;;;;27.48;15.13;;;;;;;-2.58;100.00;99430.41;5050510;28;20047;-76
2024/01/18 04:12:40;;;;;;;27.00;15.27;;;;;;;-2.71;100.00;99415.91;5050434;28;20029;-77
2024/01/18 04:15:08;;;;;;;25.98;13.40;;;;;;;-2.48;100.00;99458.06;5050323;28;20048;-77
2024/01/18 04:17:34;;;;;;;27.98;14.27;;;;;;;-2.76;100.00;99420.75;5050465;28;20477;-76
2024/01/18 04:19:59;;;;;;;31.17;16.20;;;;;;;-2.59;100.00;99460.06;5032427;28;20039;-76
2024/01/18 04:22:25;;;;;;;24.15;13.93;;;;;;;-2.82;100.00;99439.59;5050175;28;20052;-76
2024/01/18 04:24:51;;;;;;;29.55;16.52;;;;;;;-2.73;100.00;99469.22;5050287;28;20032;-76
2024/01/18 04:27:16;;;;;;;25.83;15.38;;;;;;;-2.74;100.00;99464.97;5050314;28;20029;-76
2024/01/18 04:29:42;;;;;;;25.88;15.00;;;;;;;-2.77;100.00;99462.66;5050296;28;20125;-76
2024/01/18 04:32:07;;;;;;;24.85;15.23;;;;;;;-2.82;100.00;99470.09;5050193;28;20098;-76
2024/01/18 04:34:33;;;;;;;28.65;16.40;;;;;;;-3.00;100.00;99454.38;5050108;28;20037;-76
2024/01/18 04:36:58;;;;;;;32.15;16.15;;;;;;;-2.98;100.00;99468.91;5048325;28;20037;-76
2024/01/18 04:39:23;;;;;;;24.85;12.93;;;;;;;-3.18;100.00;99452.50;5050106;28;20032;-76
2024/01/18 04:41:49;;;;;;;27.17;12.88;;;;;;;-3.08;100.00;99482.00;5048772;28;20025;-76
2024/01/18 04:44:15;;;;;;;24.33;14.38;;;;;;;-3.35;100.00;99446.28;5049872;28;20116;-76
2024/01/18 04:46:41;;;;;;;24.15;14.40;;;;;;;-3.22;100.00;99481.63;5048687;28;20406;-76
2024/01/18 04:49:07;;;;;;;31.15;17.70;;;;;;;-3.35;100.00;99472.34;5048677;28;20044;-76
2024/01/18 04:51:32;;;;;;;28.80;15.43;;;;;;;-3.46;100.00;99461.25;5049417;28;20968;-76
2024/01/18 04:53:57;;;;;;;29.95;17.30;;;;;;;-3.45;100.00;99471.53;5049873;28;20435;-76
2024/01/18 04:56:23;;;;;;;29.20;16.48;;;;;;;-3.48;100.00;99473.59;5049748;28;20111;-76
2024/01/18 04:58:49;;;;;;;24.58;14.85;;;;;;;-3.34;100.00;99502.66;5049697;28;20388;-76
2024/01/18 05:01:14;;;;;;;27.38;16.35;;;;;;;-3.40;100.00;99505.81;5049733;28;20025;-76
2024/01/18 05:03:39;;;;;;;26.25;15.60;;;;;;;-3.48;100.00;99516.13;5049706;28;20086;-76
2024/01/18 05:06:05;;;;;;;23.45;14.23;;;;;;;-3.60;100.00;99505.03;5049419;28;20028;-76
2024/01/18 05:08:31;;;;;;;27.10;14.40;;;;;;;-3.54;100.00;99511.44;5048284;28;20053;-76
2024/01/18 05:10:56;;;;;;;32.20;16.10;;;;;;;-3.59;100.00;99524.94;5049529;28;20083;-76
2024/01/18 05:13:22;;;;;;;28.88;14.23;;;;;;;-3.80;100.00;99501.63;5049649;28;20033;-76
2024/01/18 05:15:48;;;;;;;27.17;15.10;;;;;;;-3.88;100.00;99496.25;5049311;28;20084;-76
2024/01/18 05:18:14;;;;;;;25.95;13.75;;;;;;;-3.73;100.00;99525.31;5048246;28;20047;-76
2024/01/18 05:20:39;;;;;;;27.23;14.40;;;;;;;-3.97;100.00;99503.13;5049462;28;20108;-76
2024/01/18 05:23:06;;;;;;;25.75;13.27;;;;;;;-3.83;100.00;99527.94;5049313;28;20052;-76
2024/01/18 05:25:32;;;;;;;28.02;15.93;;;;;;;-3.82;100.00;99529.59;5048331;28;20125;-76
2024/01/18 05:27:58;;;;;;;27.30;15.48;;;;;;;-3.94;100.00;99517.66;5049393;28;20052;-76
2024/01/18 05:30:23;;;;;;;27.95;16.67;;;;;;;-4.12;100.00;99495.84;5047932;28;20029;-76
2024/01/18 05:32:49;;;;;;;31.80;15.70;;;;;;;-4.07;100.00;99510.09;5048083;28;20036;-76
2024/01/18 05:35:14;;;;;;;27.65;15.48;;;;;;;-3.90;100.00;99536.41;5047677;28;20025;-76
2024/01/18 05:37:40;;;;;;;26.17;16.45;;;;;;;-3.93;100.00;99545.34;5048910;28;20029;-76
2024/01/18 05:40:07;;;;;;;25.40;15.00;;;;;;;-3.92;100.00;99530.53;5049177;28;20114;-76
2024/01/18 05:42:32;;;;;;;27.15;14.13;;;;;;;-4.08;100.00;99518.88;5049211;28;20028;-76
2024/01/18 05:44:58;;;;;;;27.52;12.98;;;;;;;-4.27;100.00;99498.88;5047948;28;20036;-76
2024/01/18 05:47:24;;;;;;;21.25;12.70;;;;;;;-4.04;100.00;99551.47;5047938;28;20029;-76
2024/01/18 05:49:49;;;;;;;27.63;12.73;;;;;;;-4.08;100.00;99557.94;5052434;28;20071;-76
2024/01/18 05:52:15;;;;;;;26.15;13.65;;;;;;;-4.23;100.00;99539.25;5053172;28;20111;-76
2024/01/18 05:54:41;;;;;;;23.17;12.52;;;;;;;-4.12;100.00;99564.34;5051795;28;20087;-75
2024/01/18 05:57:07;;;;;;;25.40;14.55;;;;;;;-4.32;100.00;99539.25;5051885;28;20033;-75
2024/01/18 05:59:33;;;;;;;30.17;15.05;;;;;;;-4.39;100.00;99525.94;5053009;28;20059;-76
2024/01/18 06:01:59;;;;;;;23.77;14.27;;;;;;;-4.19;100.00;99566.69;5052631;28;20040;-76
2024/01/18 06:04:24;;;;;;;29.25;13.77;;;;;;;-4.48;100.00;99544.94;5053006;28;20029;-76
2024/01/18 06:06:50;;;;;;;24.08;13.90;;;;;;;-4.42;100.00;99552.25;5051547;28;20033;-76
2024/01/18 06:09:16;;;;;;;23.83;13.65;;;;;;;-4.29;100.00;99585.84;5052827;28;20476;-76
2024/01/18 06:11:44;;;;;;;29.05;13.82;;;;;;;-4.32;100.00;99591.28;5052589;28;20087;-76
2024/01/18 06:14:09;;;;;;;27.92;16.65;;;;;;;-4.34;100.00;99598.44;5052510;28;20453;-76
2024/01/18 06:16:35;;;;;;;25.08;14.60;;;;;;;-4.48;100.00;99568.38;5052583;28;20128;-76
2024/01/18 06:19:00;;;;;;;24.40;15.25;;;;;;;-4.34;100.00;99594.03;5052719;28;20392;-76
2024/01/18 06:21:25;;;;;;;26.98;13.68;;;;;;;-4.58;100.00;99581.34;5052512;28;20032;-76
2024/01/18 06:23:51;;;;;;;25.67;12.90;;;;;;;-4.36;100.00;99618.53;5052453;28;20024;-76
2024/01/18 06:26:16;;;;;;;24.90;14.68;;;;;;;-4.55;100.00;99594.09;5052318;28;20029;-76
2024/01/18 06:28:42;;;;;;;23.92;14.57;;;;;;;-4.39;100.00;99618.81;5052224;28;20178;-76
2024/01/18 06:31:08;;;;;;;26.67;13.73;;;;;;;-4.60;100.00;99593.66;5052326;28;20075;-76
2024/01/18 06:33:33;;;;;;;23.25;12.45;;;;;;;-4.42;100.00;99632.91;5052251;28;20373;-76
2024/01/18 06:35:59;;;;;;;24.95;14.65;;;;;;;-4.46;100.00;99631.50;5052438;28;20028;-76
2024/01/18 06:38:24;;;;;;;23.77;12.35;;;;;;;-4.49;100.00;99650.00;5052304;28;20029;-76
2024/01/18 06:40:49;;;;;;;24.45;13.82;;;;;;;-4.51;100.00;99644.91;5052025;28;20620;-76
2024/01/18 06:43:15;;;;;;;23.17;12.23;;;;;;;-4.71;100.00;99615.38;5052005;28;20122;-76
2024/01/18 06:45:41;;;;;;;25.40;13.52;;;;;;;-4.59;100.00;99636.09;5052115;28;20087;-76
2024/01/18 06:48:07;;;;;;;27.55;13.13;;;;;;;-4.59;100.00;99643.91;5052024;28;20446;-76
2024/01/18 06:50:33;;;;;;;28.05;14.15;;;;;;;-4.79;100.00;99622.16;5051943;28;20028;-76
2024/01/18 06:52:59;;;;;;;22.38;12.77;;;;;;;-4.73;100.00;99638.09;5051832;28;20043;-76
2024/01/18 06:55:25;;;;;;;26.23;14.23;;;;;;;-4.75;100.00;99646.97;5051916;28;20021;-76
2024/01/18 06:57:51;;;;;;;23.75;13.98;;;;;;;-4.70;100.00;99655.22;5051719;28;20115;-76
2024/01/18 07:00:19;;;;;;;24.00;14.13;;;;;;;-4.88;100.00;99626.38;5051178;28;20112;-76
2024/01/18 07:02:46;;;;;;;22.38;12.05;;;;;;;-4.71;100.00;99657.00;5050354;28;20025;-76
2024/01/18 07:05:11;;;;;;;24.23;13.90;;;;;;;-4.95;100.00;99622.63;5051704;28;20040;-76
2024/01/18 07:07:36;;;;;;;22.42;12.75;;;;;;;-4.90;100.00;99625.66;5051882;28;20036;-76
2024/01/18 07:10:02;;;;;;;22.85;12.45;;;;;;;-4.85;100.00;99646.91;5051682;28;21183;-76
2024/01/18 07:12:27;;;;;;;26.83;13.40;;;;;;;-4.86;100.00;99653.06;5050224;28;20053;-76
2024/01/18 07:14:53;;;;;;;30.52;14.80;;;;;;;-5.05;100.00;99635.59;5051350;28;20550;-76
2024/01/18 07:17:18;;;;;;;25.85;14.25;;;;;;;-5.01;100.00;99655.16;5051500;28;20037;-76
2024/01/18 07:19:44;;;;;;;24.75;12.80;;;;;;;-5.08;100.00;99644.47;5051551;28;20057;-76
2024/01/18 07:22:10;;;;;;;25.92;13.05;;;;;;;-4.86;100.00;99690.31;5051393;28;20112;-76
2024/01/18 07:24:35;;;;;;;21.67;11.55;;;;;;;-4.89;100.00;99694.94;5051267;28;20148;-76
2024/01/18 07:27:00;;;;;;;23.17;12.25;;;;;;;-4.90;100.00;99693.28;5051197;28;20032;-76
2024/01/18 07:29:26;;;;;;;23.85;11.98;;;;;;;-5.09;100.00;99668.78;5051481;28;20052;-76
2024/01/18 07:31:51;;;;;;;27.50;14.20;;;;;;;-5.10;100.00;99664.53;5051232;28;20036;-76
2024/01/18 07:34:17;;;;;;;24.38;12.80;;;;;;;-5.09;100.00;99670.56;5048946;28;20056;-76
2024/01/18 07:36:43;;;;;;;26.95;12.50;;;;;;;-4.96;100.00;99706.78;5050318;28;20074;-75
2024/01/18 07:39:09;;;;;;;29.55;16.45;;;;;;;-4.95;100.00;99718.81;5015998;28;20037;-76
2024/01/18 07:41:35;;;;;;;21.92;13.02;;;;;;;-4.96;100.00;99714.59;5050073;28;20044;-76
2024/01/18 07:44:00;;;;;;;21.52;12.82;;;;;;;-5.02;100.00;99713.31;5032224;28;20052;-76
2024/01/18 07:46:26;;;;;;;27.63;13.45;;;;;;;-5.01;100.00;99712.34;5015985;28;20029;-76
2024/01/18 07:48:52;;;;;;;26.95;14.00;;;;;;;-5.04;100.00;99725.59;5050523;28;20040;-76
2024/01/18 07:51:18;;;;;;;25.63;13.52;;;;;;;-5.10;100.00;99721.72;5049486;28;20567;-76
2024/01/18 07:53:43;;;;;;;27.13;14.52;;;;;;;-4.99;100.00;99731.25;5051072;28;20495;-76
2024/01/18 07:56:08;;;;;;;27.08;13.00;;;;;;;-4.99;100.00;99739.06;5050106;28;20044;-76
2024/01/18 07:58:34;;;;;;;25.33;13.95;;;;;;;-5.00;100.00;99741.75;5048262;28;20037;-77
2024/01/18 08:00:59;;;;;;;24.85;11.88;;;;;;;-4.99;100.00;99748.63;5050244;28;20025;-76
2024/01/18 08:03:27;;;;;;;22.20;11.80;;;;;;;-4.99;100.00;99761.63;5050176;28;20029;-76
2024/01/18 08:05:52;;;;;;;19.38;11.48;;;;;;;-5.12;100.00;99733.19;5050017;28;20037;-76
2024/01/18 08:08:18;;;;;;;25.13;13.95;;;;;;;-5.02;100.00;99754.09;5032484;28;20041;-76
2024/01/18 08:10:43;;;;;;;23.02;12.93;;;;;;;-4.96;100.00;99771.78;5031696;28;20518;-76
2024/01/18 08:13:08;;;;;;;26.38;13.32;;;;;;;-4.94;100.00;99769.88;5032400;28;20047;-76
2024/01/18 08:15:34;;;;;;;27.27;14.50;;;;;;;-5.03;100.00;99750.66;5032118;28;20055;-76
2024/01/18 08:18:00;;;;;;;49.60;23.15;;;;;;;-4.87;100.00;99766.66;5048979;28;20081;-76
2024/01/18 08:20:25;;;;;;;34.47;17.10;;;;;;;-4.88;100.00;99764.19;5048818;28;20033;-76
2024/01/18 08:22:50;;;;;;;32.85;18.25;;;;;;;-4.74;100.00;99782.09;5047849;28;20112;-74
2024/01/18 08:25:16;;;;;;;29.75;16.75;;;;;;;-4.69;100.00;99782.56;5029221;28;20047;-75
2024/01/18 08:27:43;;;;;;;26.38;14.05;;;;;;;-4.62;100.00;99785.47;5048136;28;20545;-77
2024/01/18 08:30:08;;;;;;;28.80;15.68;;;;;;;-4.56;100.00;99784.94;5047809;28;20028;-77
2024/01/18 08:32:34;;;;;;;24.63;13.02;;;;;;;-4.48;100.00;99781.72;5030109;28;20095;-76
2024/01/18 08:35:06;;;;;;;36.45;14.98;;;;;;;-4.53;100.00;99765.66;5046663;28;20029;-76
2024/01/18 08:37:32;;;;;;;30.33;16.73;;;;;;;-4.39;100.00;99780.16;5047611;28;20490;-76
2024/01/18 08:39:57;;;;;;;39.83;16.90;;;;;;;-4.32;100.00;99778.66;5047761;28;20033;-75
2024/01/18 08:42:23;;;;;;;27.98;14.68;;;;;;;-4.11;100.00;99808.16;5047689;28;20037;-75
2024/01/18 08:44:48;;;;;;;33.55;17.63;;;;;;;-4.01;100.00;99805.56;5029459;28;20040;-75
2024/01/18 08:47:15;;;;;;;34.05;18.15;;;;;;;-3.92;100.00;99810.03;5046495;28;20064;-76
2024/01/18 08:49:40;;;;;;;27.95;14.75;;;;;;;-3.85;100.00;99816.38;5047545;28;20063;-75
2024/01/18 08:52:06;;;;;;;31.75;16.05;;;;;;;-3.76;100.00;99819.97;5047717;28;20048;-73
2024/01/18 08:54:31;;;;;;;25.73;13.70;;;;;;;-3.66;100.00;99826.06;5047462;28;20039;-74
2024/01/18 08:56:57;;;;;;;25.30;13.60;;;;;;;-3.54;100.00;99817.19;5046095;28;20033;-74
2024/01/18 08:59:23;;;;;;;25.88;14.68;;;;;;;-3.59;100.00;99798.53;5046185;28;20039;-75
2024/01/18 09:01:49;;;;;;;23.17;11.77;;;;;;;-3.43;100.00;99818.03;5047335;28;20108;-74
2024/01/18 09:04:14;;;;;;;23.55;12.85;;;;;;;-3.29;100.00;99830.72;5046706;28;20043;-75
2024/01/18 09:06:40;;;;;;;26.88;14.55;;;;;;;-3.22;100.00;99841.41;5047828;28;20484;-76
2024/01/18 09:09:13;;;;;;;25.15;13.43;;;;;;;-3.17;100.00;99842.69;5047470;28;20036;-77
2024/01/18 09:11:39;;;;;;;26.48;13.88;;;;;;;-3.05;100.00;99850.41;5047269;28;20040;-75
2024/01/18 09:14:04;;;;;;;20.48;13.20;;;;;;;-3.03;100.00;99849.31;5046961;28;20036;-76
2024/01/18 09:16:33;;;;;;;27.65;12.95;;;;;;;-3.02;100.00;99831.88;5047469;28;20039;-77
2024/01/18 09:18:59;;;;;;;23.15;12.48;;;;;;;-2.76;100.00;99861.69;5046093;28;20431;-73
2024/01/18 09:21:25;;;;;;;25.90;14.13;;;;;;;-2.66;100.00;99856.50;5045667;28;20025;-75
2024/01/18 09:23:50;;;;;;;29.80;15.93;;;;;;;-2.55;100.00;99863.38;5046251;28;20486;-74
2024/01/18 09:26:16;;;;;;;23.98;14.38;;;;;;;-2.44;100.00;99871.06;5046691;28;20118;-74
2024/01/18 09:28:43;;;;;;;24.98;12.85;;;;;;;-2.46;100.00;99865.19;5047989;28;20080;-75
2024/01/18 09:31:09;;;;;;;31.70;15.13;;;;;;;-2.27;100.00;99883.44;5049149;28;20036;-75
2024/01/18 09:33:35;;;;;;;24.88;12.30;;;;;;;-2.18;100.00;99888.78;5049388;28;20113;-76
2024/01/18 09:36:01;;;;;;;22.63;12.15;;;;;;;-2.27;100.00;99867.78;5049188;28;20028;-76
2024/01/18 09:38:29;;;;;;;24.88;11.98;;;;;;;-1.96;100.00;99903.38;5048030;28;20052;-76
2024/01/18 09:41:01;;;;;;;23.60;11.98;;;;;;;-2.05;100.00;99878.88;5049059;28;20028;-76
2024/01/18 09:43:34;;;;;;;26.80;12.75;;;;;;;-1.85;100.00;99901.41;5047478;28;20112;-76
2024/01/18 09:45:59;;;;;;;21.02;11.20;;;;;;;-1.73;100.00;99912.53;5049199;28;20024;-77
2024/01/18 09:48:25;;;;;;;21.85;10.95;;;;;;;-1.90;100.00;99881.91;5047939;28;20043;-77
2024/01/18 09:50:52;;;;;;;18.27;10.25;;;;;;;-1.57;100.00;99925.84;5031281;28;20033;-77
2024/01/18 09:53:17;;;;;;;16.10;9.52;;;;;;;-1.48;100.00;99928.59;5031123;28;20033;-77
2024/01/18 09:55:45;;;;;;;16.90;9.10;;;;;;;-1.45;100.00;99934.34;5047598;28;20044;-77
2024/01/18 09:58:12;;;;;;;20.15;10.32;;;;;;;-1.36;100.00;99945.75;5031078;28;20037;-75
2024/01/18 10:00:53;;;;;;;19.48;9.73;;;;;;;-1.47;100.00;99909.31;5048873;28;20036;-76
2024/01/18 10:03:18;;;;;;;23.90;10.68;;;;;;;-1.12;100.00;99958.34;5048748;28;20035;-76
2024/01/18 10:05:43;;;;;;;15.57;8.43;;;;;;;-1.05;100.00;99950.72;5048819;28;20029;-76
2024/01/18 10:08:09;;;;;;;17.35;9.48;;;;;;;-0.92;100.00;99965.16;5031064;28;20036;-76
2024/01/18 10:10:34;;;;;;;17.48;7.72;;;;;;;-0.83;100.00;99973.94;5048546;28;20575;-75
2024/01/18 10:13:02;;;;;;;20.70;9.00;;;;;;;-0.90;100.00;99955.34;5048763;28;20021;-76
2024/01/18 10:15:34;;;;;;;10.93;6.13;;;;;;;-0.68;100.00;99977.72;5048709;28;20439;-76
2024/01/18 10:17:59;;;;;;;;;;;;;;;-0.54;100.00;99989.50;5047831;28;20630;-76
2024/01/18 10:20:26;;;;;;;10.68;5.90;;;;;;;-0.45;100.00;99993.88;5047347;28;19920;-76
2024/01/18 10:22:53;;;;;;;13.60;6.40;;;;;;;-0.37;100.00;99987.88;5048771;28;20116;-76
2024/01/18 10:25:23;;;;;;;12.52;5.35;;;;;;;-0.38;100.00;99985.41;5048682;28;20424;-76
2024/01/18 10:27:52;;;;;;;11.97;4.90;;;;;;;-0.35;100.00;99982.50;5048761;28;20024;-76
2024/01/18 10:30:17;;;;;;;10.57;4.50;;;;;;;-0.10;100.00;100010.59;5048527;28;20025;-76
2024/01/18 10:32:45;;;;;;;8.48;4.10;;;;;;;0.01;100.00;100021.84;5048988;28;20233;-76
2024/01/18 10:35:24;;;;;;;16.13;6.50;;;;;;;0.11;100.00;100014.75;5050245;28;20108;-76
2024/01/18 10:38:04;;;;;;;10.13;5.25;;;;;;;0.17;100.00;100017.56;5051925;28;20033;-76
2024/01/18 10:40:33;;;;;;;7.10;4.88;;;;;;;0.03;100.00;99986.66;5052154;28;20017;-76
2024/01/18 10:43:00;;;;;;;8.60;4.65;;;;;;;0.33;100.00;100022.13;5052144;28;20028;-76
2024/01/18 10:45:29;;;;;;;12.90;6.13;;;;;;;0.42;100.00;100028.28;5050940;28;20468;-76
2024/01/18 10:47:58;;;;;;;7.10;4.07;;;;;;;0.32;100.00;100004.75;5051936;28;20066;-76
2024/01/18 10:50:24;;;;;;;6.63;3.92;;;;;;;0.48;100.00;100016.38;5051865;28;20025;-76
2024/01/18 10:52:51;;;;;;;8.00;4.45;;;;;;;0.39;100.00;99994.47;5051216;28;20044;-76
2024/01/18 10:55:16;;;;;;;8.35;3.97;;;;;;;0.68;100.00;100032.72;5051778;28;20040;-76
2024/01/18 10:57:42;;;;;;;6.13;4.80;;;;;;;0.60;100.00;100021.22;5050343;28;20118;-76
2024/01/18 11:00:08;;;;;;;8.57;3.83;;;;;;;0.81;100.00;100046.28;5050333;28;20025;-75
2024/01/18 11:02:39;;;;;;;8.50;4.05;;;;;;;0.82;100.00;100038.25;5051339;28;20380;-76
2024/01/18 11:05:10;;;;;;;12.50;3.75;;;;;;;0.93;100.00;100042.44;5051432;28;20037;-75
2024/01/18 11:07:37;;;;;;;8.60;4.10;;;;;;;0.87;100.00;100033.38;5051322;28;20040;-76